Time;durP1;ratioP1;P1;durP2;ratioP2;P2;SDS_P1;SDS_P2;PMS_P1;PMS_P2;Temp;Humidity;BMP_temperature;BMP_pressure;BME280_temperature;BME280_humidity;BME280_pressure;Samples;Min_cycle;Max_cycle;Signal;HPM_P1;HPM_P2
2023/11/30 03:21:45;;;;;;;16.10;9.38;;;;;;;;;;6211994;22;20296;-87
2023/11/30 03:24:11;;;;;;;15.75;8.65;;;;;;;;;;6268078;22;20027;-88
2023/11/30 03:26:37;;;;;;;16.88;8.60;;;;;;;;;;6240630;23;20048;-87
2023/11/30 03:29:06;;;;;;;15.48;9.75;;;;;;;;;;6240947;23;20015;-89
2023/11/30 03:31:32;;;;;;;20.30;10.07;;;;;;;;;;6237596;23;20016;-86
2023/11/30 03:33:58;;;;;;;19.73;11.13;;;;;;;;;;6266960;23;20001;-86
2023/11/30 03:36:24;;;;;;;19.08;10.32;;;;;;;;;;6240982;23;20019;-91
2023/11/30 03:38:53;;;;;;;23.92;11.20;;;;;;;;;;6241843;23;19992;-88
2023/11/30 03:41:20;;;;;;;21.30;11.25;;;;;;;;;;6241116;23;20004;-91
2023/11/30 03:43:46;;;;;;;22.15;11.35;;;;;;;;;;6239818;23;19995;-87
2023/11/30 03:46:12;;;;;;;21.70;10.93;;;;;;;;;;6265813;22;20011;-89
2023/11/30 03:48:38;;;;;;;22.45;11.88;;;;;;;;;;6238665;23;20008;-87
2023/11/30 03:51:04;;;;;;;18.85;10.23;;;;;;;;;;6237293;23;20012;-86
2023/11/30 03:53:30;;;;;;;23.17;11.32;;;;;;;;;;6234852;23;20004;-89
2023/11/30 03:55:56;;;;;;;24.70;11.57;;;;;;;;;;6264303;22;20004;-85
2023/11/30 03:58:22;;;;;;;21.98;12.07;;;;;;;;;;6241778;23;20039;-87
2023/11/30 04:00:49;;;;;;;21.05;10.63;;;;;;;;;;6268781;23;20012;-87
2023/11/30 04:03:15;;;;;;;19.33;10.40;;;;;;;;;;6267927;22;19996;-89
2023/11/30 04:05:41;;;;;;;23.08;11.48;;;;;;;;;;6268504;22;19996;-83
2023/11/30 04:08:07;;;;;;;20.55;10.98;;;;;;;;;;6267546;23;20015;-86
2023/11/30 04:10:34;;;;;;;22.45;11.15;;;;;;;;;;6267724;23;20005;-88
2023/11/30 04:13:00;;;;;;;21.95;11.38;;;;;;;;;;6239637;23;19995;-89
2023/11/30 04:15:26;;;;;;;24.27;11.57;;;;;;;;;;6240716;23;20011;-90
2023/11/30 04:17:52;;;;;;;28.60;12.07;;;1.30;99.90;;;;;;6241905;23;19996;-85
2023/11/30 04:20:18;;;;;;;26.58;11.80;;;;;;;;;;6240115;23;19996;-88
2023/11/30 04:22:44;;;;;;;22.73;11.55;;;;;;;;;;6266806;23;20019;-89
2023/11/30 04:25:10;;;;;;;23.33;12.05;;;;;;;;;;6268904;22;20020;-90
2023/11/30 04:27:37;;;;;;;21.80;11.27;;;;;;;;;;6268241;23;20015;-88
2023/11/30 04:30:03;;;;;;;23.23;11.43;;;1.20;99.90;;;;;;6268792;22;20091;-91
2023/11/30 04:32:29;;;;;;;22.88;11.57;;;;;;;;;;6242297;23;20007;-90
2023/11/30 04:34:56;;;;;;;24.80;12.23;;;;;;;;;;6268973;22;19992;-89
2023/11/30 04:37:22;;;;;;;31.08;14.20;;;;;;;;;;6268588;23;20004;-90
2023/11/30 04:39:48;;;;;;;29.98;12.65;;;;;;;;;;6266945;23;20000;-85
2023/11/30 04:42:14;;;;;;;32.47;15.00;;;;;;;;;;6266837;23;20005;-89
2023/11/30 04:44:40;;;;;;;32.60;14.82;;;;;;;;;;6268456;22;20008;-84
2023/11/30 04:47:06;;;;;;;36.10;16.48;;;;;;;;;;6268158;23;20015;-88
2023/11/30 04:49:32;;;;;;;36.92;18.40;;;;;;;;;;6241795;23;19996;-83
2023/11/30 04:51:59;;;;;;;36.75;16.85;;;;;;;;;;6266231;23;19992;-89
2023/11/30 04:54:25;;;;;;;35.25;16.15;;;;;;;;;;6268295;23;20000;-83
2023/11/30 04:56:51;;;;;;;35.35;15.32;;;;;;;;;;6240004;23;20046;-87
2023/11/30 04:59:17;;;;;;;33.55;15.98;;;;;;;;;;6267767;23;20004;-86
2023/11/30 05:01:43;;;;;;;32.20;14.38;;;;;;;;;;6267707;23;20406;-86
2023/11/30 05:04:09;;;;;;;32.08;15.40;;;;;;;;;;6241240;23;20284;-87
2023/11/30 05:06:35;;;;;;;33.65;16.23;;;;;;;;;;6242293;23;19992;-84
2023/11/30 05:09:01;;;;;;;29.98;14.23;;;;;;;;;;6268005;23;20004;-84
2023/11/30 05:11:27;;;;;;;33.58;15.07;;;;;;;;;;6267510;23;20000;-86
2023/11/30 05:13:53;;;;;;;39.20;17.10;;;;;;;;;;6243198;22;20001;-85
2023/11/30 05:16:19;;;;;;;31.48;15.20;;;;;;;;;;6243767;23;19996;-86
2023/11/30 05:18:45;;;;;;;38.45;15.88;;;;;;;;;;6244164;23;20034;-86
2023/11/30 05:21:12;;;;;;;34.38;14.07;;;;;;;;;;6269405;22;20012;-86
2023/11/30 05:23:38;;;;;;;27.13;13.75;;;;;;;;;;6268243;23;20019;-86
2023/11/30 05:26:04;;;;;;;29.95;12.88;;;;;;;;;;6269577;22;20059;-87
2023/11/30 05:28:32;;;;;;;26.35;12.18;;;;;;;;;;6240576;23;19992;-87
2023/11/30 05:30:58;;;;;;;23.23;11.80;;;;;;;;;;6268803;22;20011;-86
2023/11/30 05:33:26;;;;;;;23.88;11.13;;;;;;;;;;6268923;22;20032;-84
2023/11/30 05:35:52;;;;;;;22.65;11.25;;;;;;;;;;6269336;22;19996;-85
2023/11/30 05:38:20;;;;;;;23.33;11.70;;;;;;;;;;6243379;23;20091;-90
2023/11/30 05:40:46;;;;;;;20.88;10.52;;;;;;;;;;6269962;23;19992;-87
2023/11/30 05:43:12;;;;;;;21.42;10.57;;;;;;;;;;6266911;23;19996;-85
2023/11/30 05:45:38;;;;;;;18.88;10.13;;;;;;;;;;6240333;23;20023;-86
2023/11/30 05:48:04;;;;;;;22.17;10.93;;;;;;;;;;6266092;23;20056;-88
2023/11/30 05:50:30;;;;;;;18.48;10.23;;;;;;;;;;6240538;23;20002;-89
2023/11/30 05:52:56;;;;;;;20.30;10.77;;;;;;;;;;6268709;22;20013;-89
2023/11/30 05:55:22;;;;;;;22.98;11.07;;;;;;;;;;6243886;22;20004;-89
2023/11/30 05:57:48;;;;;;;17.83;9.38;;;;;;;;;;6242630;23;20004;-86
2023/11/30 06:00:16;;;;;;;22.67;9.57;;;;;;;;;;6240658;23;20030;-85
2023/11/30 06:02:45;;;;;;;20.05;10.23;;;;;;;;;;6240801;23;20031;-86
2023/11/30 06:05:11;;;;;;;19.15;9.70;;;;;;;;;;6239355;23;19996;-84
2023/11/30 06:07:38;;;;;;;22.58;10.32;;;;;;;;;;6263588;23;20012;-87
2023/11/30 06:10:05;;;;;;;18.02;9.73;;;;;;;;;;6265141;23;20008;-83
2023/11/30 06:12:31;;;;;;;22.83;11.13;;;;;;;;;;6238455;23;20074;-88
2023/11/30 06:14:57;;;;;;;22.45;11.48;;;;;;;;;;6265777;22;20000;-84
2023/11/30 06:17:23;;;;;;;23.48;11.55;;;;;;;;;;6235784;23;20004;-83
2023/11/30 06:19:49;;;;;;;23.38;11.75;;;;;;;;;;6235295;23;20008;-83
2023/11/30 06:22:15;;;;;;;27.25;12.00;;;;;;;;;;6260110;23;20024;-86
2023/11/30 06:24:43;;;;;;;24.50;11.25;;;;;;;;;;6234068;22;20012;-85
2023/11/30 06:27:09;;;;;;;24.30;12.32;;;;;;;;;;6234278;23;20016;-83
2023/11/30 06:29:35;;;;;;;30.50;13.18;;;;;;;;;;6260727;23;19996;-83
2023/11/30 06:32:02;;;;;;;27.90;13.50;;;;;;;;;;6230212;23;20045;-85
2023/11/30 06:34:33;;;;;;;26.42;12.98;;;;;;;;;;6234559;23;20321;-85
2023/11/30 06:36:59;;;;;;;27.95;13.23;;;;;;;;;;6230425;23;20000;-83
2023/11/30 06:39:26;;;;;;;25.40;12.27;;;;;;;;;;6234455;23;20004;-83
2023/11/30 06:41:52;;;;;;;27.48;12.73;;;;;;;;;;6235670;23;20004;-83
2023/11/30 06:44:25;;;;;;;25.80;13.60;;;;;;;;;;6262130;23;20004;-85
2023/11/30 06:46:52;;;;;;;25.98;13.23;;;;;;;;;;6261633;22;20016;-83
2023/11/30 06:49:18;;;;;;;27.25;12.90;;;;;;;;;;6235272;23;20043;-80
2023/11/30 06:51:44;;;;;;;23.88;12.85;;;;;;;;;;6260225;23;20004;-83
2023/11/30 06:54:10;;;;;;;23.88;12.23;;;;;;;;;;6259373;23;20003;-84
2023/11/30 06:56:36;;;;;;;24.88;11.35;;;;;;;;;;6232028;23;20044;-82
2023/11/30 06:59:02;;;;;;;25.75;13.00;;;;;;;;;;6262536;23;20000;-86
2023/11/30 07:01:30;;;;;;;32.03;14.38;;;;;;;;;;6236221;23;20011;-82
2023/11/30 07:03:56;;;;;;;41.38;21.67;;;;;;;;;;6232822;23;20004;-85
2023/11/30 07:06:22;;;;;;;30.55;14.27;;;;;;;;;;6228773;23;20004;-84
2023/11/30 07:08:50;;;;;;;30.38;13.65;;;;;;;;;;6257690;23;20000;-82
2023/11/30 07:11:17;;;;;;;32.35;14.55;;;;;;;;;;6232769;23;20031;-84
2023/11/30 07:13:48;;;;;;;34.00;15.73;;;;;;;;;;6258172;23;20006;-88
2023/11/30 07:16:14;;;;;;;38.90;16.58;;;;;;;;;;6233010;23;20004;-81
2023/11/30 07:18:40;;;;;;;36.88;16.27;;;;;;;;;;6231968;23;20012;-82
2023/11/30 07:21:13;;;;;;;41.50;16.20;;;1.20;99.90;;;;;;6232957;23;20008;-82
2023/11/30 07:23:39;;;;;;;37.60;15.45;;;;;;;;;;6230860;23;20012;-85
2023/11/30 07:26:13;;;;;;;35.22;16.40;;;1.20;99.90;;;;;;6259543;22;20039;-85
2023/11/30 07:28:39;;;;;;;37.08;16.15;;;;;;;;;;6263981;23;20020;-87
2023/11/30 07:31:06;;;;;;;37.10;16.63;;;;;;;;;;6261250;23;20004;-83
2023/11/30 07:33:34;;;;;;;36.92;16.65;;;;;;;;;;6230394;23;20008;-84
2023/11/30 07:36:06;;;;;;;40.65;16.63;;;;;;;;;;6235546;23;20423;-83
2023/11/30 07:38:32;;;;;;;36.17;15.43;;;;;;;;;;6240476;23;20032;-87
2023/11/30 07:40:58;;;;;;;37.55;17.83;;;;;;;;;;6267386;23;19996;-83
2023/11/30 07:43:25;;;;;;;33.67;16.85;;;;;;;;;;6240793;23;20227;-85
2023/11/30 07:45:51;;;;;;;36.40;17.40;;;;;;;;;;6241097;23;20142;-85
2023/11/30 07:48:29;;;;;;;39.90;17.92;;;;;;;;;;6241249;23;20015;-84
2023/11/30 07:50:56;;;;;;;37.08;17.48;;;;;;;;;;6240424;23;20020;-86
2023/11/30 07:53:25;;;;;;;41.45;17.80;;;;;;;;;;6242031;23;19997;-84
2023/11/30 07:55:56;;;;;;;35.72;17.40;;;;;;;;;;6245455;22;20016;-84
2023/11/30 07:58:25;;;;;;;36.33;18.73;;;;;;;;;;6245210;22;20004;-87
2023/11/30 08:00:51;;;;;;;31.88;15.82;;;;;;;;;;6271601;22;19992;-86
2023/11/30 08:03:18;;;;;;;31.40;16.00;;;;;;;;;;6271403;22;19993;-88
2023/11/30 08:05:44;;;;;;;39.10;16.80;;;;;;;;;;6245512;22;20000;-85
2023/11/30 08:08:11;;;;;;;35.30;17.23;;;;;;;;;;6271195;22;19992;-88
2023/11/30 08:10:43;;;;;;;37.50;16.60;;;;;;;;;;6242390;23;20032;-85
2023/11/30 08:13:15;;;;;;;30.30;15.65;;;;;;;;;;6237198;23;20067;-82
2023/11/30 08:15:44;;;;;;;28.85;14.45;;;;;;;;;;6237273;23;19997;-82
2023/11/30 08:18:12;;;;;;;37.38;17.15;;;;;;;;;;6261599;23;20000;-82
2023/11/30 08:20:42;;;;;;;39.72;17.35;;;;;;;;;;6233001;23;20016;-83
2023/11/30 08:23:12;;;;;;;37.70;17.83;;;;;;;;;;6259660;23;19993;-82
2023/11/30 08:25:43;;;;;;;33.53;16.65;;;;;;;;;;6235705;23;20012;-83
2023/11/30 08:28:10;;;;;;;35.13;17.02;;;;;;;;;;6209952;23;19997;-85
2023/11/30 08:30:41;;;;;;;37.85;17.45;;;;;;;;;;6231959;23;20026;-82
2023/11/30 08:33:09;;;;;;;35.38;16.92;;;;;;;;;;6259488;23;20001;-82
2023/11/30 08:35:35;;;;;;;33.33;17.42;;;;;;;;;;6263359;22;20019;-84
2023/11/30 08:38:01;;;;;;;29.30;15.18;;;;;;;;;;6269092;23;20056;-86
2023/11/30 08:40:30;;;;;;;31.40;16.10;;;1.70;99.90;;;;;;6267636;23;20015;-84
2023/11/30 08:43:02;;;;;;;30.70;14.52;;;;;;;;;;6238323;23;20015;-84
2023/11/30 08:45:32;;;;;;;31.13;15.07;;;;;;;;;;6261079;22;20008;-84
2023/11/30 08:48:01;;;;;;;30.63;15.50;;;;;;;;;;6267577;23;20008;-87
2023/11/30 08:50:35;;;;;;;30.58;14.50;;;;;;;;;;6267142;23;20004;-83
2023/11/30 08:53:06;;;;;;;25.63;14.57;;;;;;;;;;6239405;23;20019;-82
2023/11/30 08:55:38;;;;;;;27.50;14.77;;;;;;;;;;6213684;23;20051;-81
2023/11/30 08:58:14;;;;;;;27.95;14.80;;;;;;;;;;6236818;23;20084;-83
2023/11/30 09:00:42;;;;;;;24.45;13.05;;;;;;;;;;6266534;23;19996;-87
2023/11/30 09:03:08;;;;;;;23.58;12.38;;;;;;;;;;6269763;22;20004;-85
2023/11/30 09:05:34;;;;;;;25.63;12.50;;;;;;;;;;6241009;23;20073;-83
2023/11/30 09:08:00;;;;;;;18.35;10.98;;;;;;;;;;6235047;23;20004;-82
2023/11/30 09:10:35;;;;;;;21.58;10.98;;;;;;;;;;6236990;23;20008;-84
2023/11/30 09:13:05;;;;;;;19.52;10.98;;;;;;;;;;6234886;23;20019;-82
2023/11/30 09:15:31;;;;;;;18.08;10.13;;;;;;;;;;6261062;22;20000;-82
2023/11/30 09:18:03;;;;;;;19.83;10.75;;;;;;;;;;6234255;23;20047;-85
2023/11/30 09:20:35;;;;;;;16.30;9.38;;;;;;;;;;6237255;23;19980;-86
2023/11/30 09:23:01;;;;;;;22.45;10.35;;;;;;;;;;6233521;23;20356;-83
2023/11/30 09:25:30;;;;;;;19.30;10.63;;;;;;;;;;6263141;22;20019;-82
2023/11/30 09:27:56;;;;;;;21.10;11.13;;;;;;;;;;6234577;23;20096;-82
2023/11/30 09:30:26;;;;;;;23.70;11.32;;;;;;;;;;6233618;23;20008;-84
2023/11/30 09:33:01;;;;;;;19.67;10.73;;;;;;;;;;6259699;23;20004;-82
2023/11/30 09:35:29;;;;;;;20.73;10.50;;;;;;;;;;6231436;23;20000;-86
2023/11/30 09:37:55;;;;;;;20.20;10.93;;;;;;;;;;6232225;23;19997;-82
2023/11/30 09:40:22;;;;;;;18.52;10.60;;;;;;;;;;6258467;23;20054;-83
2023/11/30 09:42:48;;;;;;;18.13;10.57;;;;;;;;;;6261682;23;20012;-88
2023/11/30 09:45:14;;;;;;;22.92;11.75;;;;;;;;;;6234554;23;20004;-82
2023/11/30 09:47:40;;;;;;;17.50;10.65;;;;;;;;;;6232916;23;20087;-85
2023/11/30 09:50:06;;;;;;;19.73;11.32;;;;;;;;;;6259413;23;20016;-84
2023/11/30 09:52:32;;;;;;;19.27;10.43;;;;;;;;;;6257622;23;20007;-83
2023/11/30 09:55:03;;;;;;;17.23;10.23;;;;;;;;;;6257742;22;20001;-84
2023/11/30 09:57:29;;;;;;;17.42;10.40;;;;;;;;;;6258675;23;20003;-82
2023/11/30 09:59:55;;;;;;;17.33;10.02;;;;;;;;;;6232258;23;20007;-82
2023/11/30 10:02:27;;;;;;;16.75;9.05;;;;;;;;;;6257320;23;20079;-83
2023/11/30 10:04:54;;;;;;;17.58;9.70;;;;;;;;;;6257101;22;20381;-83
2023/11/30 10:07:23;;;;;;;16.90;8.80;;;;;;;;;;6257226;23;20008;-81
2023/11/30 10:09:52;;;;;;;16.48;9.73;;;;;;;;;;6257097;23;20079;-84
2023/11/30 10:12:19;;;;;;;17.02;9.18;;;;;;;;;;6258128;23;20000;-82
2023/11/30 10:14:46;;;;;;;16.92;9.50;;;;;;;;;;6258091;22;19996;-82
2023/11/30 10:17:12;;;;;;;15.23;9.25;;;;;;;;;;6231072;23;20004;-82
2023/11/30 10:19:41;;;;;;;17.27;9.23;;;;;;;;;;6230931;23;20004;-82
2023/11/30 10:22:10;;;;;;;16.02;9.90;;;;;;;;;;6261891;22;20007;-87
2023/11/30 10:24:39;;;;;;;15.93;9.77;;;;;;;;;;6264647;23;20003;-85
2023/11/30 10:27:09;;;;;;;16.63;9.40;;;;;;;;;;6231090;23;20047;-83
2023/11/30 10:29:42;;;;;;;16.42;9.00;;;3.50;99.90;;;;;;6231968;23;19997;-85
2023/11/30 10:32:19;;;;;;;15.48;8.52;;;3.60;99.90;;;;;;6232788;23;20016;-81
2023/11/30 10:34:54;;;;;;;18.27;8.52;;;3.60;99.90;;;;;;6234918;22;19996;-83
2023/11/30 10:37:26;;;;;;;15.38;8.88;;;3.70;99.90;;;;;;6241065;23;20008;-83
2023/11/30 10:40:12;;;;;;;17.13;8.65;;;3.70;99.90;;;;;;6241646;23;20405;-84
2023/11/30 10:42:49;;;;;;;16.77;9.80;;;3.80;99.90;;;;;;6234916;23;20014;-81
2023/11/30 10:45:19;;;;;;;15.40;8.07;;;3.90;99.90;;;;;;6257536;22;20008;-83
2023/11/30 10:47:53;;;;;;;14.57;8.63;;;3.90;99.90;;;;;;6227966;23;20004;-83
2023/11/30 10:50:22;;;;;;;15.73;8.57;;;;;;;;;;6227861;23;20000;-83
2023/11/30 10:52:52;;;;;;;13.45;7.97;;;4.10;99.90;;;;;;6203493;23;20016;-83
2023/11/30 10:55:21;;;;;;;13.95;8.38;;;4.10;99.90;;;;;;6255751;22;20000;-83
2023/11/30 10:57:55;;;;;;;14.70;8.65;;;4.10;99.90;;;;;;6253998;23;20007;-85
2023/11/30 11:00:24;;;;;;;14.10;8.20;;;;;;;;;;6227621;23;20026;-82
2023/11/30 11:02:50;;;;;;;14.07;8.10;;;;;;;;;;6253727;23;20010;-84
2023/11/30 11:05:21;;;;;;;15.70;7.82;;;4.20;99.90;;;;;;6227916;23;20015;-83
2023/11/30 11:07:58;;;;;;;18.50;8.60;;;4.30;99.90;;;;;;6253611;23;20000;-85
2023/11/30 11:10:35;;;;;;;16.80;8.77;;;4.30;99.90;;;;;;6255920;23;20007;-85
2023/11/30 11:13:01;;;;;;;16.30;9.43;;;;;;;;;;6225552;23;20450;-83
2023/11/30 11:15:28;;;;;;;15.30;9.07;;;4.40;99.90;;;;;;6224532;23;20054;-86
2023/11/30 11:18:07;;;;;;;15.75;8.88;;;4.30;99.90;;;;;;6253460;23;20024;-83
2023/11/30 11:20:36;;;;;;;15.20;9.07;;;4.30;99.90;;;;;;6226671;23;19997;-84
2023/11/30 11:23:06;;;;;;;14.30;8.38;;;;;;;;;;6253406;23;20004;-82
2023/11/30 11:25:46;;;;;;;14.82;8.60;;;4.40;99.90;;;;;;6251791;22;20008;-82
2023/11/30 11:28:13;;;;;;;13.07;7.72;;;;;;;;;;6252777;23;20001;-83
2023/11/30 11:30:49;;;;;;;16.00;8.98;;;;;;;;;;6224919;23;20058;-84
2023/11/30 11:33:18;;;;;;;12.85;7.90;;;4.30;99.90;;;;;;6252236;23;20012;-82
2023/11/30 11:35:45;;;;;;;13.18;7.18;;;;;;;;;;6226126;23;20003;-81
2023/11/30 11:38:11;;;;;;;13.45;7.70;;;;;;;;;;6254261;23;19993;-82
2023/11/30 11:40:41;;;;;;;12.38;7.07;;;4.30;99.90;;;;;;6253021;23;20126;-85
2023/11/30 11:43:07;;;;;;;12.25;7.43;;;;;;;;;;6253075;23;20004;-83
2023/11/30 11:45:35;;;;;;;12.55;7.53;;;;;;;;;;6254958;22;20008;-82
2023/11/30 11:48:02;;;;;;;14.23;8.23;;;4.30;99.90;;;;;;6258569;23;20035;-84
2023/11/30 11:50:28;;;;;;;12.27;6.88;;;;;;;;;;6210553;23;20020;-83
2023/11/30 11:53:04;;;;;;;13.13;6.75;;;4.30;99.90;;;;;;6269085;22;20004;-87
2023/11/30 11:55:31;;;;;;;15.80;7.30;;;;;;;;;;6244995;23;20072;-84
2023/11/30 11:58:00;;;;;;;14.68;8.15;;;;;;;;;;6243969;23;20016;-89
2023/11/30 12:00:29;;;;;;;13.55;7.95;;;;;;;;;;6244657;23;19988;-90
2023/11/30 12:03:07;;;;;;;13.18;7.82;;;;;;;;;;6270194;22;19995;-87
2023/11/30 12:05:46;;;;;;;14.93;7.90;;;4.30;99.90;;;;;;6242530;23;20258;-83
2023/11/30 12:08:35;;;;;;;14.32;8.13;;;4.30;99.90;;;;;;6260945;23;20086;-84
2023/11/30 12:11:01;;;;;;;13.75;8.02;;;;;;;;;;6231780;23;20004;-87
2023/11/30 12:13:27;;;;;;;16.00;7.95;;;;;;;;;;6254901;23;19996;-86
2023/11/30 12:15:56;;;;;;;14.43;7.78;;;;;;;;;;6256152;22;20004;-84
2023/11/30 12:18:22;;;;;;;15.73;8.45;;;;;;;;;;6257047;23;20000;-81
2023/11/30 12:20:49;;;;;;;19.63;9.68;;;;;;;;;;6256600;23;20007;-87
2023/11/30 12:23:15;;;;;;;15.30;8.60;;;;;;;;;;6228767;23;20058;-83
2023/11/30 12:25:41;;;;;;;17.35;9.07;;;;;;;;;;6229086;23;20443;-86
2023/11/30 12:28:07;;;;;;;16.52;8.60;;;;;;;;;;6227640;23;20326;-84
2023/11/30 12:30:33;;;;;;;16.45;9.10;;;;;;;;;;6227843;23;20005;-82
2023/11/30 12:32:59;;;;;;;13.20;8.07;;;;;;;;;;6253072;23;20015;-82
2023/11/30 12:35:26;;;;;;;14.50;8.55;;;;;;;;;;6254772;22;20607;-84
2023/11/30 12:37:52;;;;;;;16.98;8.30;;;;;;;;;;6226897;23;20008;-82
2023/11/30 12:40:18;;;;;;;15.57;8.98;;;;;;;;;;6227637;23;20059;-84
2023/11/30 12:42:44;;;;;;;14.20;7.80;;;;;;;;;;6254341;23;20047;-83
2023/11/30 12:45:16;;;;;;;12.13;7.35;;;;;;;;;;6253833;22;20016;-85
2023/11/30 12:47:45;;;;;;;12.40;6.88;;;;;;;;;;6228286;23;20102;-83
2023/11/30 12:50:11;;;;;;;14.30;7.35;;;;;;;;;;6256000;23;20000;-82
2023/11/30 12:52:38;;;;;;;12.57;7.95;;;;;;;;;;6227585;23;20452;-83
2023/11/30 12:55:04;;;;;;;13.18;7.00;;;;;;;;;;6229970;23;20059;-82
2023/11/30 12:57:33;;;;;;;12.93;7.00;;;;;;;;;;6256855;23;20100;-83
2023/11/30 13:00:01;;;;;;;15.85;7.15;;;;;;;;;;6228847;23;20004;-82
2023/11/30 13:02:27;;;;;;;12.48;6.97;;;;;;;;;;6255818;23;20000;-88
2023/11/30 13:04:56;;;;;;;12.85;7.07;;;;;;;;;;6229640;22;20000;-83
2023/11/30 13:07:29;;;;;;;14.35;6.82;;;;;;;;;;6255690;23;20011;-85
2023/11/30 13:09:57;;;;;;;10.95;5.85;;;;;;;;;;6259962;23;20008;-83
2023/11/30 13:12:30;;;;;;;12.13;6.72;;;;;;;;;;6234919;23;20001;-83
2023/11/30 13:14:56;;;;;;;11.10;6.20;;;;;;;;;;6259524;22;20057;-83
2023/11/30 13:17:26;;;;;;;12.63;6.70;;;;;;;;;;6259094;23;20007;-88
2023/11/30 13:19:55;;;;;;;12.02;6.60;;;;;;;;;;6233480;23;20004;-83
2023/11/30 13:22:21;;;;;;;11.60;6.88;;;;;;;;;;6235664;23;20015;-82
2023/11/30 13:24:56;;;;;;;11.32;6.95;;;;;;;;;;6260182;22;20015;-87
2023/11/30 13:27:32;;;;;;;12.93;7.70;;;;;;;;;;6261200;23;20000;-84
2023/11/30 13:30:01;;;;;;;11.80;6.80;;;;;;;;;;6259471;23;20012;-83
2023/11/30 13:32:33;;;;;;;12.27;7.10;;;;;;;;;;6261288;23;20458;-81
2023/11/30 13:35:09;;;;;;;12.77;7.07;;;;;;;;;;6235116;22;20001;-84
2023/11/30 13:37:37;;;;;;;12.80;7.53;;;;;;;;;;6233988;23;20054;-84
2023/11/30 13:40:07;;;;;;;13.88;7.43;;;4.60;99.90;;;;;;6234921;23;20001;-88
2023/11/30 13:42:34;;;;;;;15.00;7.95;;;;;;;;;;6235092;23;20003;-83
2023/11/30 13:45:05;;;;;;;15.02;8.77;;;;;;;;;;6236176;22;20004;-83
2023/11/30 13:47:31;;;;;;;13.52;7.03;;;;;;;;;;6264318;23;20000;-83
2023/11/30 13:49:57;;;;;;;12.82;7.25;;;;;;;;;;6240447;23;20420;-86
2023/11/30 13:52:24;;;;;;;13.68;6.68;;;4.60;99.90;;;;;;6243063;23;20031;-84
2023/11/30 13:54:50;;;;;;;17.27;8.05;;;;;;;;;;6259357;22;20429;-84
2023/11/30 13:57:18;;;;;;;12.80;7.47;;;;;;;;;;6232349;23;20005;-83
2023/11/30 13:59:47;;;;;;;11.27;6.47;;;;;;;;;;6234821;23;20007;-86
2023/11/30 14:02:16;;;;;;;13.40;6.90;;;;;;;;;;6236767;23;20063;-85
2023/11/30 14:04:42;;;;;;;13.80;6.82;;;;;;;;;;6235080;22;20011;-83
2023/11/30 14:07:10;;;;;;;11.57;6.45;;;;;;;;;;6260262;23;20004;-83
2023/11/30 14:09:38;;;;;;;11.10;6.18;;;;;;;;;;6232970;23;20019;-83
2023/11/30 14:12:04;;;;;;;10.10;5.88;;;;;;;;;;6233367;23;20008;-84
2023/11/30 14:14:35;;;;;;;11.32;5.88;;;;;;;;;;6259479;23;20364;-83
2023/11/30 14:17:04;;;;;;;11.80;6.47;;;;;;;;;;6258551;22;20075;-84
2023/11/30 14:19:33;;;;;;;12.43;6.60;;;4.90;99.90;;;;;;6231871;23;20004;-81
2023/11/30 14:21:59;;;;;;;11.77;6.68;;;;;;;;;;6232572;23;20030;-83
2023/11/30 14:24:29;;;;;;;13.63;8.05;;;;;;;;;;6257890;23;20031;-86
2023/11/30 14:26:56;;;;;;;10.77;6.78;;;;;;;;;;6260129;22;20004;-85
2023/11/30 14:29:23;;;;;;;12.88;7.57;;;;;;;;;;6231743;23;20008;-83
2023/11/30 14:31:49;;;;;;;12.65;7.00;;;;;;;;;;6229923;23;20428;-83
2023/11/30 14:34:15;;;;;;;14.10;7.75;;;;;;;;;;6256875;23;20004;-83
2023/11/30 14:36:44;;;;;;;14.55;8.52;;;;;;;;;;6230974;23;20000;-84
2023/11/30 14:39:10;;;;;;;12.02;7.25;;;;;;;;;;6260437;23;19996;-84
2023/11/30 14:41:37;;;;;;;13.80;8.20;;;;;;;;;;6259757;23;20000;-83
2023/11/30 14:44:04;;;;;;;13.02;7.60;;;;;;;;;;6256847;23;20003;-84
2023/11/30 14:46:30;;;;;;;12.13;7.57;;;;;;;;;;6256426;22;20348;-83
2023/11/30 14:48:56;;;;;;;11.70;7.13;;;;;;;;;;6230977;23;20004;-83
2023/11/30 14:51:22;;;;;;;14.82;7.50;;;;;;;;;;6267413;22;20012;-85
2023/11/30 14:53:48;;;;;;;13.77;7.72;;;;;;;;;;6264836;23;20004;-85
2023/11/30 14:56:14;;;;;;;13.57;8.15;;;;;;;;;;6258737;22;20027;-83
2023/11/30 14:58:44;;;;;;;15.38;8.32;;;;;;;;;;6209137;23;20012;-83
2023/11/30 15:01:13;;;;;;;14.73;7.75;;;;;;;;;;6238427;23;20063;-85
2023/11/30 15:03:39;;;;;;;13.07;7.47;;;;;;;;;;6233619;23;20004;-85
2023/11/30 15:06:06;;;;;;;11.88;7.10;;;;;;;;;;6260596;22;20008;-82
2023/11/30 15:08:35;;;;;;;12.88;7.22;;;;;;;;;;6262698;23;20004;-84
2023/11/30 15:11:04;;;;;;;13.70;6.72;;;;;;;;;;6234398;23;20031;-84
2023/11/30 15:13:34;;;;;;;12.00;6.85;;;;;;;;;;6260477;23;20004;-86
2023/11/30 15:16:00;;;;;;;17.73;9.32;;;;;;;;;;6261211;22;20095;-89
2023/11/30 15:18:26;;;;;;;12.80;7.47;;;;;;;;;;6237458;23;20000;-83
2023/11/30 15:20:53;;;;;;;19.23;8.80;;;;;;;;;;6236492;23;19996;-83
2023/11/30 15:23:19;;;;;;;15.52;7.80;;;;;;;;;;6263543;23;20008;-84
2023/11/30 15:25:48;;;;;;;12.48;7.35;;;;;;;;;;6236864;23;20000;-92
2023/11/30 15:28:17;;;;;;;14.68;8.40;;;;;;;;;;6241547;23;20061;-84
2023/11/30 15:30:43;;;;;;;12.43;7.70;;;;;;;;;;6269927;22;20028;-85
2023/11/30 15:33:09;;;;;;;12.80;8.05;;;;;;;;;;6236436;23;19992;-83
2023/11/30 15:35:35;;;;;;;20.45;11.82;;;;;;;;;;6233519;23;20005;-83
2023/11/30 15:38:02;;;;;;;13.68;7.10;;;;;;;;;;6234796;23;20000;-87
2023/11/30 15:40:28;;;;;;;14.85;8.82;;;;;;;;;;6261139;23;20046;-85
2023/11/30 15:42:57;;;;;;;13.52;7.90;;;;;;;;;;6261782;23;20012;-81
2023/11/30 15:45:23;;;;;;;14.65;8.27;;;;;;;;;;6262974;22;20052;-85
2023/11/30 15:47:50;;;;;;;13.15;7.85;;;4.00;99.90;;;;;;6262048;23;20007;-83
2023/11/30 15:50:24;;;;;;;15.45;8.30;;;;;;;;;;6263142;23;20016;-83
2023/11/30 15:52:51;;;;;;;16.08;7.70;;;;;;;;;;6235184;23;20302;-87
2023/11/30 15:55:20;;;;;;;13.88;7.93;;;;;;;;;;6238345;23;19996;-89
2023/11/30 15:57:49;;;;;;;16.40;9.45;;;;;;;;;;6242797;23;20004;-85
2023/11/30 16:00:24;;;;;;;17.58;9.57;;;;;;;;;;6241547;23;19993;-84
2023/11/30 16:05:46;;;;;;;17.33;9.32;;;;;;;;;;6245961;23;20003;-85
2023/11/30 16:08:15;;;;;;;18.17;8.55;;;;;;;;;;6268100;22;20001;-84
2023/11/30 16:10:46;;;;;;;19.17;8.77;;;;;;;;;;6238823;23;20000;-84
2023/11/30 16:13:13;;;;;;;16.17;8.15;;;;;;;;;;6261659;23;20068;-83
2023/11/30 16:15:42;;;;;;;13.77;7.55;;;;;;;;;;6240545;23;20016;-84
2023/11/30 16:18:13;;;;;;;15.68;8.40;;;;;;;;;;6265197;23;20004;-83
2023/11/30 16:20:39;;;;;;;16.38;9.20;;;;;;;;;;6233692;23;20008;-84
2023/11/30 16:23:31;;;;;;;16.33;9.13;;;3.50;99.90;;;;;;6240435;23;20464;-82
2023/11/30 16:25:59;;;;;;;;;;;3.50;99.90;;;;;;6237978;23;20008;-87
2023/11/30 16:28:28;;;;;;;15.82;8.63;;;;;;;;;;6236214;23;19900;-84
2023/11/30 16:30:56;;;;;;;15.95;9.75;;;;;;;;;;6262880;23;19996;-84
2023/11/30 16:33:24;;;;;;;15.38;8.63;;;;;;;;;;6261903;23;20069;-83
2023/11/30 16:35:53;;;;;;;14.27;8.43;;;3.40;99.90;;;;;;6265149;22;20008;-84
2023/11/30 16:38:22;;;;;;;18.63;9.88;;;;;;;;;;6264292;23;20055;-85
2023/11/30 16:40:55;;;;;;;17.23;9.57;;;;;;;;;;6237362;23;20054;-84
2023/11/30 16:43:21;;;;;;;17.77;10.13;;;;;;;;;;6235329;23;20064;-89
2023/11/30 16:45:57;;;;;;;18.60;10.38;;;;;;;;;;6263234;22;20022;-83
2023/11/30 16:48:27;;;;;;;17.25;10.43;;;;;;;;;;6261464;23;20007;-83
2023/11/30 16:50:57;;;;;;;19.00;10.83;;;;;;;;;;6257986;23;19996;-84
2023/11/30 16:53:29;;;;;;;18.60;11.57;;;;;;;;;;6233245;23;20004;-82
2023/11/30 16:55:57;;;;;;;21.60;12.55;;;;;;;;;;6234996;23;19995;-84
2023/11/30 16:58:28;;;;;;;23.58;11.70;;;;;;;;;;6235223;23;20000;-84
2023/11/30 17:00:55;;;;;;;19.92;11.50;;;;;;;;;;6237452;23;20000;-82
2023/11/30 17:03:21;;;;;;;21.17;11.48;;;;;;;;;;6237909;23;20004;-84
2023/11/30 17:05:48;;;;;;;21.50;10.80;;;;;;;;;;6265593;22;20483;-82
2023/11/30 17:08:16;;;;;;;19.90;11.00;;;;;;;;;;6265878;23;19997;-84
2023/11/30 17:10:52;;;;;;;22.60;11.05;;;;;;;;;;6244509;23;19996;-84
2023/11/30 17:13:22;;;;;;;22.30;11.27;;;;;;;;;;6239451;23;20096;-82
2023/11/30 17:15:57;;;;;;;22.50;12.27;;;;;;;;;;6264395;22;20003;-84
2023/11/30 17:18:26;;;;;;;21.33;11.18;;;;;;;;;;6239012;23;20008;-83
2023/11/30 17:20:55;;;;;;;21.75;12.18;;;;;;;;;;6240397;23;20064;-84
2023/11/30 17:23:31;;;;;;;22.52;11.90;;;;;;;;;;6269057;23;20079;-87
2023/11/30 17:26:07;;;;;;;25.67;12.45;;;;;;;;;;6239823;23;20024;-87
2023/11/30 17:28:33;;;;;;;21.45;11.70;;;;;;;;;;6264550;23;20011;-83
2023/11/30 17:30:59;;;;;;;23.42;12.50;;;;;;;;;;6262240;23;20012;-83
2023/11/30 17:33:51;;;;;;;23.58;12.73;;;3.10;99.90;;;;;;6263204;23;20079;-84
2023/11/30 17:36:24;;;;;;;21.25;11.52;;;;;;;;;;6237958;23;20012;-83
2023/11/30 17:39:19;;;;;;;;;;;;;;;;;;;;;
2023/11/30 17:41:47;;;;;;;18.88;10.23;;;;;;;;;;6259717;23;20027;-85